CDT,Max TemperatureF,Mean TemperatureF,Min TemperatureF,Max Dew PointF,MeanDew PointF,Min DewpointF,Max Humidity, Mean Humidity, Min Humidity, Max Sea Level PressureIn, Mean Sea Level PressureIn, Min Sea Level PressureIn, Max VisibilityMiles, Mean VisibilityMiles, Min VisibilityMiles, Max Wind SpeedMPH, Mean Wind SpeedMPH, Max Gust SpeedMPH,PrecipitationIn, CloudCover, Events, WindDirDegrees
2012-10-1,79,68,57,57,54,49,93,68,37,30.04,29.95,29.88,10,10,10,18,10,26,0.00,1,,352
2012-10-2,75,65,55,54,51,47,90,62,38,30.07,29.98,29.87,10,10,10,14,6,,0.00,1,,68
2012-10-3,87,72,57,55,50,46,72,50,25,29.88,29.83,29.78,10,10,10,17,12,26,0.00,0,,176
2012-10-4,73,66,57,57,52,45,87,63,46,30.12,30.01,29.86,10,10,6,21,13,31,0.00,0,,61
2012-10-5,79,65,51,62,56,51,100,86,52,30.15,30.05,29.91,10,7,0,20,7,24,0.00,4,Fog,75
2012-10-6,59,52,44,54,44,33,97,75,55,30.24,30.10,29.99,10,9,4,23,16,28,0.00,6,,55
2012-10-7,50,46,41,35,32,28,67,60,56,30.27,30.22,30.13,10,10,10,21,13,25,0.00,8,,69
2012-10-8,45,42,39,36,35,34,83,77,68,30.22,30.19,30.16,10,10,10,6,5,,0.00,4,,104
2012-10-9,87,78,64,54,45,37,68,34,17,29.91,29.87,29.83,10,10,10,10,8,17,0.00,0,,207
2012-10-10,66,60,53,56,51,46,90,73,62,30.21,30.07,29.89,10,10,9,17,9,,0.00,4,,63
2012-10-11,82,68,55,65,60,53,100,80,51,30.13,30.02,29.93,10,9,5,18,7,25,0.00,4,,123
2012-10-12,82,74,66,66,65,62,90,74,54,30.14,29.98,29.88,10,10,9,20,13,28,0.00,3,,154
2012-10-13,84,74,63,68,55,32,94,61,16,30.04,29.91,29.79,10,10,7,21,11,28,0.03,3,Rain-Thunderstorm,222
2012-10-14,78,66,54,43,39,36,59,41,22,30.17,30.08,29.95,10,10,10,14,8,18,0.00,0,,29
2012-10-15,78,64,53,50,45,40,69,49,29,30.12,30.03,29.89,10,10,10,14,6,20,0.00,0,,164
2012-10-16,81,72,64,55,52,47,73,54,34,29.87,29.75,29.65,10,10,10,15,10,21,0.00,0,,211
2012-10-17,89,74,59,52,42,28,75,41,11,29.75,29.67,29.63,10,10,10,17,8,26,0.00,0,,248
2012-10-18,73,62,50,43,35,29,57,40,23,30.01,29.92,29.77,10,10,10,14,9,17,0.00,0,,69
2012-10-19,78,62,46,49,40,32,68,45,28,30.01,29.92,29.82,10,10,10,17,9,,0.00,0,,151
2012-10-20,88,71,55,60,49,39,83,52,19,29.81,29.75,29.68,10,10,10,15,10,22,0.00,0,,203
2012-10-21,88,77,66,62,51,37,79,48,17,29.82,29.75,29.70,10,10,9,13,9,22,0.00,0,,201
2012-10-22,82,70,60,63,57,48,88,65,31,29.97,29.85,29.78,10,10,5,13,7,20,0.04,3,Rain-Thunderstorm,190
2012-10-23,86,75,64,63,56,39,93,60,19,29.88,29.81,29.76,10,10,9,15,9,20,0.00,0,,186
2012-10-24,87,76,66,64,62,58,90,70,40,29.83,29.75,29.66,10,10,9,21,12,26,0.00,0,,173
2012-10-25,70,62,50,63,50,34,93,63,38,30.10,29.87,29.68,10,10,10,25,14,31,0.00,0,,56
2012-10-26,55,47,39,34,29,20,73,50,30,30.33,30.24,30.10,10,10,10,21,15,25,0.00,2,,40
2012-10-27,54,44,34,24,21,18,67,38,25,30.32,30.22,30.10,10,10,10,15,10,,0.00,3,,107
2012-10-28,64,50,36,34,30,24,67,53,33,30.18,30.14,30.09,10,10,10,8,5,,0.00,0,,131
2012-10-29,72,56,39,37,34,31,73,49,28,30.17,30.07,30.00,10,10,10,13,8,,0.00,0,,146
2012-10-30,78,58,39,41,36,31,79,49,19,30.01,29.97,29.91,10,10,10,8,5,,0.00,0,,71
2012-10-31,79,62,44,47,39,35,80,49,20,30.06,30.00,29.96,10,10,10,13,3,16,0.00,0,,133